createdAt,value
2022-11-24T00:01:08.765Z,42.40
2022-11-24T00:04:11.498Z,38.70
2022-11-24T00:07:13.478Z,41.70
2022-11-24T00:10:15.588Z,40.25
2022-11-24T00:13:17.545Z,43.67
2022-11-24T00:16:19.528Z,47.03
2022-11-24T00:19:21.538Z,42.83
2022-11-24T00:22:23.491Z,46.15
2022-11-24T00:25:25.432Z,44.75
2022-11-24T00:28:27.425Z,41.13
2022-11-24T00:31:33.930Z,40.67
2022-11-24T00:34:36.186Z,43.13
2022-11-24T00:37:38.237Z,34.95
2022-11-24T00:40:40.218Z,40.63
2022-11-24T00:43:42.185Z,43.87
2022-11-24T00:46:44.250Z,42.90
2022-11-24T00:49:46.324Z,39.67
2022-11-24T00:52:48.268Z,43.30
2022-11-24T00:55:50.473Z,38.42
2022-11-24T00:58:52.597Z,43.22
2022-11-24T01:01:54.658Z,40.83
2022-11-24T01:04:56.641Z,36.07
2022-11-24T01:07:58.593Z,41.13
2022-11-24T01:11:26.902Z,38.80
2022-11-24T01:14:28.872Z,37.77
2022-11-24T01:17:30.835Z,37.58
2022-11-24T01:20:32.873Z,40.65
2022-11-24T01:23:34.923Z,47.75
2022-11-24T01:26:36.852Z,46.75
2022-11-24T01:29:38.855Z,44.40
2022-11-24T01:32:40.829Z,39.00
2022-11-24T01:35:42.788Z,42.20
2022-11-24T01:38:44.785Z,44.58
2022-11-24T01:41:46.756Z,44.13
2022-11-24T01:44:49.210Z,44.43
2022-11-24T01:47:51.254Z,42.65
2022-11-24T01:50:55.847Z,33.28
2022-11-24T01:54:00.819Z,41.92
2022-11-24T01:57:06.191Z,37.92
2022-11-24T02:00:09.981Z,39.70
2022-11-24T02:03:23.089Z,36.30
2022-11-24T02:06:29.260Z,37.47
2022-11-24T02:09:46.833Z,38.58
2022-11-24T02:12:50.454Z,35.78
2022-11-24T02:15:53.187Z,32.70
2022-11-24T02:18:55.322Z,35.90
2022-11-24T02:21:57.526Z,40.42
2022-11-24T02:25:11.876Z,26.25
2022-11-24T02:28:15.727Z,29.02
2022-11-24T02:31:17.994Z,33.92
2022-11-24T02:34:20.529Z,28.98
2022-11-24T02:37:22.447Z,35.00
2022-11-24T02:40:26.737Z,29.92
2022-11-24T02:43:30.546Z,33.08
2022-11-24T02:46:32.522Z,36.50
2022-11-24T02:49:34.588Z,43.35
2022-11-24T02:52:36.585Z,48.50
2022-11-24T02:55:38.540Z,45.60
2022-11-24T02:58:40.569Z,49.63
2022-11-24T03:01:42.662Z,43.42
2022-11-24T03:04:44.727Z,37.58
2022-11-24T03:07:46.722Z,32.20
2022-11-24T03:10:49.317Z,40.13
2022-11-24T03:13:51.372Z,38.05
2022-11-24T03:16:53.307Z,40.50
2022-11-24T03:19:57.164Z,36.45
2022-11-24T03:23:02.163Z,39.45
2022-11-24T03:26:08.192Z,35.90
2022-11-24T03:29:10.185Z,37.05
2022-11-24T03:32:12.118Z,37.47
2022-11-24T03:35:14.092Z,33.90
2022-11-24T03:38:16.047Z,31.23
2022-11-24T03:41:18.024Z,37.17
2022-11-24T03:44:20.018Z,31.30
2022-11-24T03:47:21.964Z,37.00
2022-11-24T03:50:23.935Z,36.53
2022-11-24T03:53:26.718Z,28.08
2022-11-24T03:56:28.681Z,29.17
2022-11-24T03:59:30.624Z,29.42
2022-11-24T04:02:32.695Z,30.13
2022-11-24T04:05:36.362Z,31.85
2022-11-24T04:08:38.383Z,31.70
2022-11-24T04:11:58.652Z,28.85
2022-11-24T04:15:00.639Z,32.28
2022-11-24T04:18:02.614Z,34.57
2022-11-24T04:21:04.645Z,33.90
2022-11-24T04:24:06.713Z,33.63
2022-11-24T04:27:08.644Z,37.75
2022-11-24T04:30:10.689Z,36.22
2022-11-24T04:33:12.989Z,40.20
2022-11-24T04:36:15.020Z,44.13
2022-11-24T04:39:22.739Z,42.57
2022-11-24T04:42:28.176Z,37.70
2022-11-24T04:45:30.137Z,40.42
2022-11-24T04:48:32.108Z,42.73
2022-11-24T04:51:34.093Z,47.00
2022-11-24T04:54:36.816Z,46.90
2022-11-24T04:57:38.895Z,44.42
2022-11-24T05:00:40.906Z,48.25
2022-11-24T05:03:42.831Z,54.75
2022-11-24T05:06:44.838Z,50.92
2022-11-24T05:10:05.604Z,54.13
2022-11-24T05:13:10.164Z,55.58
2022-11-24T05:16:12.614Z,56.35
2022-11-24T05:19:14.652Z,63.53
2022-11-24T05:22:16.640Z,60.53
2022-11-24T05:25:18.658Z,56.33
2022-11-24T05:28:20.687Z,66.63
2022-11-24T05:31:22.746Z,65.05
2022-11-24T05:34:24.799Z,58.42
2022-11-24T05:37:28.118Z,58.33
2022-11-24T05:40:30.760Z,61.50
2022-11-24T05:43:32.742Z,63.60
2022-11-24T05:46:34.779Z,60.50
2022-11-24T05:49:36.892Z,69.67
2022-11-24T05:52:39.057Z,73.57
2022-11-24T05:55:41.100Z,64.30
2022-11-24T05:58:43.158Z,69.13
2022-11-24T06:01:45.251Z,79.40
2022-11-24T06:04:47.370Z,82.95
2022-11-24T06:07:49.722Z,69.20
2022-11-24T06:10:51.743Z,72.53
2022-11-24T06:13:53.810Z,75.63
2022-11-24T06:16:55.937Z,68.10
2022-11-24T06:19:58.202Z,65.30
2022-11-24T06:23:00.792Z,64.35
2022-11-24T06:26:02.934Z,71.60
2022-11-24T06:29:05.129Z,64.57
2022-11-24T06:32:07.373Z,68.60
2022-11-24T06:35:09.841Z,66.78
2022-11-24T06:38:12.106Z,67.78
2022-11-24T06:41:15.142Z,62.57
2022-11-24T06:44:17.548Z,67.43
2022-11-24T06:47:19.668Z,67.82
2022-11-24T06:50:22.187Z,69.80
2022-11-24T06:53:24.706Z,64.13
2022-11-24T06:56:27.033Z,84.72
2022-11-24T06:59:29.680Z,82.00
2022-11-24T07:02:31.911Z,58.72
2022-11-24T07:05:54.652Z,79.22
2022-11-24T07:08:56.988Z,73.22
2022-11-24T07:11:59.147Z,70.17
2022-11-24T07:15:01.397Z,71.22
2022-11-24T07:18:03.548Z,84.15
2022-11-24T07:21:05.760Z,79.53
2022-11-24T07:24:07.862Z,80.10
2022-11-24T07:27:09.883Z,78.15
2022-11-24T07:30:12.027Z,83.28
2022-11-24T07:33:14.139Z,85.63
2022-11-24T07:36:16.177Z,87.55
2022-11-24T07:39:18.503Z,83.28
2022-11-24T07:42:21.171Z,91.87
2022-11-24T07:45:23.415Z,91.43
2022-11-24T07:48:25.756Z,90.57
2022-11-24T07:51:28.050Z,82.67
2022-11-24T07:54:30.783Z,81.47
2022-11-24T07:57:33.368Z,75.47
2022-11-24T08:00:36.031Z,80.18
2022-11-24T08:03:38.353Z,72.23
2022-11-24T08:06:45.939Z,72.75
2022-11-24T08:09:50.546Z,76.47
2022-11-24T08:12:52.616Z,79.37
2022-11-24T08:15:54.782Z,74.82
2022-11-24T08:18:56.935Z,78.57
2022-11-24T08:21:59.075Z,73.75
2022-11-24T08:25:01.148Z,77.65
2022-11-24T08:28:04.569Z,66.45
2022-11-24T08:31:08.340Z,72.22
2022-11-24T08:34:10.670Z,67.57
2022-11-24T08:37:12.902Z,69.93
2022-11-24T08:40:15.065Z,66.50
2022-11-24T08:43:17.309Z,66.50
2022-11-24T08:46:19.925Z,68.90
2022-11-24T08:49:22.781Z,65.80
2022-11-24T08:52:24.908Z,68.13
2022-11-24T08:55:27.121Z,65.40
2022-11-24T08:58:29.757Z,71.53
2022-11-24T09:01:32.048Z,71.38
2022-11-24T09:04:34.323Z,74.80
2022-11-24T09:07:36.690Z,68.68
2022-11-24T09:10:38.838Z,67.35
2022-11-24T09:13:41.072Z,71.03
2022-11-24T09:16:45.678Z,57.03
2022-11-24T09:19:48.627Z,65.15
2022-11-24T09:22:50.781Z,61.30
2022-11-24T09:25:52.893Z,62.60
2022-11-24T09:28:55.934Z,57.45
2022-11-24T09:32:00.819Z,54.33
2022-11-24T09:35:10.551Z,52.73
2022-11-24T09:38:13.898Z,52.45
2022-11-24T09:41:31.746Z,56.30
2022-11-24T09:45:04.765Z,53.00
2022-11-24T09:48:12.564Z,58.45
2022-11-24T09:51:15.474Z,49.42
2022-11-24T09:54:21.164Z,54.47
2022-11-24T09:57:25.789Z,44.95
2022-11-24T10:00:27.952Z,46.30
2022-11-24T10:03:34.496Z,44.08
2022-11-24T10:06:44.635Z,52.87
2022-11-24T10:09:55.664Z,49.47
2022-11-24T10:12:57.940Z,48.92
2022-11-24T10:16:03.001Z,40.87
2022-11-24T10:19:08.003Z,46.45
2022-11-24T10:22:26.942Z,44.17
2022-11-24T10:25:35.468Z,46.55
2022-11-24T10:28:47.510Z,48.03
2022-11-24T10:31:53.677Z,45.08
2022-11-24T10:34:59.610Z,51.50
2022-11-24T10:38:16.327Z,48.53
2022-11-24T10:41:28.177Z,44.90
2022-11-24T10:44:30.482Z,46.95
2022-11-24T10:47:32.700Z,43.23
2022-11-24T10:50:42.763Z,47.60
2022-11-24T10:53:46.162Z,43.00
2022-11-24T10:56:50.560Z,42.58
2022-11-24T10:59:52.720Z,41.83
2022-11-24T11:03:11.679Z,42.65
2022-11-24T11:06:15.066Z,50.05
2022-11-24T11:09:19.716Z,39.63
2022-11-24T11:15:46.421Z,42.75
2022-11-24T11:18:49.545Z,37.90
2022-11-24T11:22:02.687Z,40.70
2022-11-24T11:25:16.111Z,36.47
2022-11-24T11:28:18.593Z,43.20
2022-11-24T11:31:22.612Z,42.78
2022-11-24T11:34:29.968Z,40.08
2022-11-24T11:37:40.499Z,43.03
2022-11-24T11:40:44.027Z,41.17
2022-11-24T11:43:47.738Z,39.05
2022-11-24T11:46:50.287Z,41.40
2022-11-24T11:49:53.075Z,43.77
2022-11-24T11:52:57.869Z,44.03
2022-11-24T11:56:02.876Z,50.28
2022-11-24T11:59:05.023Z,42.65
2022-11-24T12:02:10.006Z,47.25
2022-11-24T12:05:18.274Z,44.67
2022-11-24T12:08:21.593Z,42.17
2022-11-24T12:11:30.018Z,43.93
2022-11-24T12:14:52.390Z,40.60
2022-11-24T12:18:21.472Z,52.65
2022-11-24T12:21:35.411Z,48.63
2022-11-24T12:24:46.382Z,47.50
2022-11-24T12:27:55.159Z,46.30
2022-11-24T12:31:07.860Z,41.17
2022-11-24T12:34:10.264Z,49.55
2022-11-24T12:37:19.063Z,44.00
2022-11-24T12:40:46.648Z,38.63
2022-11-24T12:43:53.130Z,36.30
2022-11-24T12:47:07.372Z,42.67
2022-11-24T12:50:12.479Z,41.78
2022-11-24T12:53:19.368Z,41.65
2022-11-24T12:56:26.290Z,41.33
2022-11-24T12:59:40.078Z,38.95
2022-11-24T13:03:00.834Z,40.17
2022-11-24T13:06:23.163Z,39.57
2022-11-24T13:09:25.295Z,42.03
2022-11-24T13:12:27.706Z,36.88
2022-11-24T13:15:45.756Z,34.20
2022-11-24T13:19:21.262Z,32.33
2022-11-24T13:22:25.781Z,30.43
2022-11-24T13:25:32.256Z,35.90
2022-11-24T13:29:03.609Z,22.88
2022-11-24T13:32:23.368Z,24.80
2022-11-24T13:35:25.427Z,28.27
2022-11-24T13:38:40.790Z,29.55
2022-11-24T13:41:42.909Z,28.67
2022-11-24T13:44:48.847Z,26.77
2022-11-24T13:47:50.897Z,25.45
2022-11-24T13:50:58.966Z,27.98
2022-11-24T13:54:01.577Z,27.30
2022-11-24T13:57:22.377Z,22.80
2022-11-24T14:00:26.176Z,29.35
2022-11-24T14:03:33.981Z,30.83
2022-11-24T14:06:39.543Z,18.63
2022-11-24T14:09:41.658Z,32.88
2022-11-24T14:12:44.032Z,25.95
2022-11-24T14:15:58.394Z,26.83
2022-11-24T14:19:09.019Z,23.42
2022-11-24T14:22:31.683Z,29.35
2022-11-24T14:25:35.269Z,30.35
2022-11-24T14:28:37.413Z,27.92
2022-11-24T14:31:39.786Z,27.65
2022-11-24T14:34:41.928Z,24.50
2022-11-24T14:37:43.996Z,24.93
2022-11-24T14:40:50.187Z,26.60
2022-11-24T14:44:12.582Z,24.73
2022-11-24T14:47:28.761Z,29.63
2022-11-24T14:50:32.467Z,27.27
2022-11-24T14:53:34.589Z,24.92
2022-11-24T14:56:37.696Z,29.23
2022-11-24T14:59:39.889Z,27.13
2022-11-24T15:02:48.374Z,24.52
2022-11-24T15:05:58.600Z,27.38
2022-11-24T15:09:00.718Z,28.20
2022-11-24T15:12:10.165Z,29.20
2022-11-24T15:15:15.134Z,33.97
2022-11-24T15:18:28.114Z,31.23
2022-11-24T15:21:34.131Z,34.75
2022-11-24T15:24:48.582Z,31.13
2022-11-24T15:27:50.992Z,29.75
2022-11-24T15:30:54.512Z,38.22
2022-11-24T15:33:56.565Z,33.65
2022-11-24T15:36:58.648Z,38.25
2022-11-24T15:40:00.658Z,34.93
2022-11-24T15:43:06.426Z,29.55
2022-11-24T15:46:09.406Z,33.85
2022-11-24T15:49:11.536Z,32.70
2022-11-24T15:52:17.533Z,34.35
2022-11-24T15:55:20.906Z,27.65
2022-11-24T15:58:23.282Z,33.03
2022-11-24T16:01:27.769Z,41.22
2022-11-24T16:04:29.961Z,44.42
2022-11-24T16:07:32.320Z,44.35
2022-11-24T16:10:36.164Z,34.93
2022-11-24T16:13:38.293Z,32.58
2022-11-24T16:16:41.501Z,42.03
2022-11-24T16:19:43.761Z,39.47
2022-11-24T16:22:45.844Z,33.58
2022-11-24T16:25:47.821Z,37.90
2022-11-24T16:28:49.900Z,32.92
2022-11-24T16:31:52.211Z,40.58
2022-11-24T16:34:54.361Z,43.33
2022-11-24T16:37:56.420Z,43.85
2022-11-24T16:40:58.656Z,41.47
2022-11-24T16:44:00.759Z,39.03
2022-11-24T16:47:03.000Z,39.95
2022-11-24T16:50:05.318Z,35.40
2022-11-24T16:53:07.514Z,35.97
2022-11-24T16:56:10.100Z,46.20
2022-11-24T16:59:12.403Z,41.53
2022-11-24T17:02:14.551Z,43.45
2022-11-24T17:05:16.616Z,45.00
2022-11-24T17:08:18.711Z,56.63
2022-11-24T17:11:22.949Z,53.23
2022-11-24T17:14:24.945Z,57.83
2022-11-24T17:17:26.988Z,55.58
2022-11-24T17:20:31.392Z,59.73
2022-11-24T17:23:33.505Z,62.67
2022-11-24T17:26:35.616Z,62.35
2022-11-24T17:29:37.639Z,51.58
2022-11-24T17:32:39.692Z,53.95
2022-11-24T17:35:41.767Z,51.70
2022-11-24T17:38:43.833Z,55.63
2022-11-24T17:41:46.299Z,48.40
2022-11-24T17:44:48.307Z,60.45
2022-11-24T17:47:50.340Z,60.25
2022-11-24T17:51:02.250Z,50.70
2022-11-24T17:54:31.203Z,52.65
2022-11-24T17:57:26.430Z,45.72
2022-11-24T18:00:28.441Z,47.17
2022-11-24T18:03:32.546Z,66.05
2022-11-24T18:06:35.323Z,59.25
2022-11-24T18:09:38.268Z,62.17
2022-11-24T18:12:40.400Z,58.07
2022-11-24T18:15:42.473Z,45.13
2022-11-24T18:18:47.390Z,45.20
2022-11-24T18:21:52.266Z,44.20
2022-11-24T18:24:54.274Z,42.03
2022-11-24T18:27:56.365Z,57.92
2022-11-24T18:31:05.562Z,54.72
2022-11-24T18:34:07.904Z,47.20
2022-11-24T18:37:13.454Z,55.28
2022-11-24T18:40:15.524Z,59.38
2022-11-24T18:43:17.701Z,52.60
2022-11-24T18:46:19.827Z,45.53
2022-11-24T18:49:21.857Z,47.13
2022-11-24T18:52:23.898Z,75.73
2022-11-24T18:55:25.981Z,72.68
2022-11-24T18:58:30.218Z,66.78
2022-11-24T19:01:32.549Z,55.58
2022-11-24T19:04:34.993Z,58.95
2022-11-24T19:07:37.499Z,51.65
2022-11-24T19:10:39.960Z,56.95
2022-11-24T19:13:42.093Z,52.43
2022-11-24T19:16:44.774Z,57.47
2022-11-24T19:19:47.265Z,58.20
2022-11-24T19:22:49.325Z,56.30
2022-11-24T19:25:51.338Z,50.58
2022-11-24T19:28:53.537Z,56.00
2022-11-24T19:31:55.673Z,59.47
2022-11-24T19:34:57.781Z,57.63
2022-11-24T19:37:59.778Z,53.65
2022-11-24T19:41:02.011Z,60.53
2022-11-24T19:44:04.061Z,59.70
2022-11-24T19:47:06.161Z,48.45
2022-11-24T19:50:10.492Z,51.67
2022-11-24T19:53:12.698Z,57.23
2022-11-24T19:56:16.668Z,55.80
2022-11-24T19:59:18.815Z,55.53
2022-11-24T20:02:20.942Z,58.67
2022-11-24T20:05:22.962Z,47.72
2022-11-24T20:08:25.049Z,53.75
2022-11-24T20:11:27.982Z,50.83
2022-11-24T20:14:30.127Z,49.47
2022-11-24T20:17:32.921Z,48.60
2022-11-24T20:20:35.001Z,45.60
2022-11-24T20:23:37.105Z,49.53
2022-11-24T20:26:43.595Z,53.40
2022-11-24T20:29:47.043Z,50.85
2022-11-24T20:32:49.210Z,48.15
2022-11-24T20:35:51.293Z,50.17
2022-11-24T20:38:53.781Z,50.75
2022-11-24T20:41:56.071Z,46.78
2022-11-24T20:45:00.960Z,52.40
2022-11-24T20:48:02.977Z,50.38
2022-11-24T20:51:06.054Z,48.65
2022-11-24T20:54:08.824Z,52.03
2022-11-24T20:57:10.809Z,51.60
2022-11-24T21:00:13.868Z,51.25
2022-11-24T21:03:15.872Z,52.85
2022-11-24T21:06:17.927Z,48.78
2022-11-24T21:09:20.028Z,52.40
2022-11-24T21:12:22.113Z,57.85
2022-11-24T21:15:24.184Z,52.83
2022-11-24T21:18:26.241Z,56.42
2022-11-24T21:21:33.417Z,60.22
2022-11-24T21:24:35.723Z,49.50
2022-11-24T21:27:37.892Z,56.47
2022-11-24T21:30:39.921Z,53.13
2022-11-24T21:33:43.329Z,59.42
2022-11-24T21:36:45.707Z,60.53
2022-11-24T21:39:48.302Z,56.88
2022-11-24T21:42:50.389Z,53.28
2022-11-24T21:45:52.593Z,53.40
2022-11-24T21:48:54.665Z,56.35
2022-11-24T21:51:56.771Z,52.47
2022-11-24T21:54:59.004Z,59.70
2022-11-24T21:58:00.949Z,60.67
2022-11-24T22:01:10.484Z,52.47
2022-11-24T22:04:12.539Z,50.20
2022-11-24T22:07:14.656Z,54.58
2022-11-24T22:10:17.115Z,50.38
2022-11-24T22:13:19.861Z,46.35
2022-11-24T22:16:22.931Z,51.20
2022-11-24T22:19:24.957Z,50.75
2022-11-24T22:22:26.989Z,48.75
2022-11-24T22:25:28.981Z,50.37
2022-11-24T22:28:32.295Z,49.40
2022-11-24T22:31:34.459Z,50.35
2022-11-24T22:34:36.740Z,49.88
2022-11-24T22:37:39.016Z,51.65
2022-11-24T22:40:41.013Z,51.95
2022-11-24T22:43:43.795Z,46.40
2022-11-24T22:46:45.792Z,44.63
2022-11-24T22:49:47.827Z,48.53
2022-11-24T22:52:50.120Z,48.78
2022-11-24T22:55:52.114Z,51.87
2022-11-24T22:58:54.234Z,50.53
2022-11-24T23:01:56.238Z,48.40
2022-11-24T23:04:58.200Z,48.47
2022-11-24T23:08:00.236Z,48.55
2022-11-24T23:11:03.297Z,49.15
2022-11-24T23:14:06.365Z,47.20
2022-11-24T23:17:08.385Z,53.93
2022-11-24T23:20:10.741Z,49.17
2022-11-24T23:23:12.777Z,54.67
2022-11-24T23:26:16.136Z,56.83
2022-11-24T23:29:18.171Z,49.55
2022-11-24T23:32:20.142Z,60.30
2022-11-24T23:35:22.262Z,52.20
2022-11-24T23:38:28.703Z,50.20
2022-11-24T23:41:31.789Z,43.28
2022-11-24T23:44:34.146Z,50.25
2022-11-24T23:47:36.385Z,50.67
2022-11-24T23:50:38.404Z,57.63
2022-11-24T23:53:41.187Z,54.75
2022-11-24T23:56:43.211Z,54.07
2022-11-24T23:59:45.259Z,57.35
